createdAt,value
2018-06-10T00:00:04.560Z,12.68
2018-06-10T00:02:32.940Z,15.00
2018-06-10T00:05:01.359Z,13.40
2018-06-10T00:07:29.455Z,12.28
2018-06-10T00:09:57.984Z,11.40
2018-06-10T00:12:26.399Z,12.60
2018-06-10T00:14:54.533Z,12.93
2018-06-10T00:17:23.150Z,13.03
2018-06-10T00:19:51.225Z,11.60
2018-06-10T00:22:19.349Z,11.48
2018-06-10T00:24:47.732Z,12.00
2018-06-10T00:27:16.153Z,13.95
2018-06-10T00:29:44.257Z,14.18
2018-06-10T00:32:12.673Z,12.55
2018-06-10T00:34:41.046Z,12.85
2018-06-10T00:37:09.445Z,18.48
2018-06-10T00:39:37.850Z,14.98
2018-06-10T00:42:05.995Z,12.95
2018-06-10T00:44:34.395Z,17.23
2018-06-10T00:47:02.483Z,16.53
2018-06-10T00:49:30.894Z,14.63
2018-06-10T00:51:59.310Z,18.23
2018-06-10T00:54:27.739Z,17.55
2018-06-10T00:56:56.129Z,22.85
2018-06-10T00:59:24.543Z,22.87
2018-06-10T01:01:52.919Z,20.95
2018-06-10T01:04:21.347Z,22.45
2018-06-10T01:06:49.785Z,25.27
2018-06-10T01:09:18.182Z,25.20
2018-06-10T01:11:46.645Z,27.82
2018-06-10T01:14:15.250Z,27.65
2018-06-10T01:16:43.651Z,26.97
2018-06-10T01:19:12.041Z,27.33
2018-06-10T01:21:40.457Z,27.22
2018-06-10T01:24:08.834Z,29.30
2018-06-10T01:26:42.696Z,27.87
2018-06-10T01:29:11.095Z,28.10
2018-06-10T01:31:39.504Z,31.42
2018-06-10T01:34:07.915Z,30.70
2018-06-10T01:36:36.328Z,25.65
2018-06-10T01:39:06.256Z,28.73
2018-06-10T01:41:35.051Z,25.60
2018-06-10T01:44:03.440Z,26.70
2018-06-10T01:46:31.850Z,23.98
2018-06-10T01:48:59.944Z,21.33
2018-06-10T01:51:28.355Z,25.10
2018-06-10T01:53:56.768Z,27.77
2018-06-10T01:56:24.869Z,25.25
2018-06-10T01:58:53.291Z,30.27
2018-06-10T02:01:21.696Z,27.70
2018-06-10T02:03:50.090Z,26.80
2018-06-10T02:06:18.217Z,25.70
2018-06-10T02:08:46.638Z,28.00
2018-06-10T02:11:14.739Z,24.15
2018-06-10T02:13:43.170Z,29.57
2018-06-10T02:16:11.564Z,31.73
2018-06-10T02:18:39.693Z,28.17
2018-06-10T02:21:08.085Z,25.20
2018-06-10T02:23:36.509Z,30.67
2018-06-10T02:26:04.927Z,23.50
2018-06-10T02:28:33.354Z,26.40
2018-06-10T02:31:01.458Z,24.87
2018-06-10T02:33:29.882Z,25.10
2018-06-10T02:35:57.975Z,22.73
2018-06-10T02:38:26.072Z,23.25
2018-06-10T02:40:54.498Z,22.02
2018-06-10T02:43:22.899Z,24.05
2018-06-10T02:45:51.367Z,23.07
2018-06-10T02:48:19.745Z,21.37
2018-06-10T02:50:48.143Z,22.85
2018-06-10T02:53:16.533Z,23.20
2018-06-10T02:55:44.928Z,23.53
2018-06-10T02:58:13.327Z,28.37
2018-06-10T03:00:41.747Z,24.87
2018-06-10T03:03:10.178Z,25.72
2018-06-10T03:05:39.254Z,28.50
2018-06-10T03:08:07.630Z,25.17
2018-06-10T03:10:36.050Z,26.60
2018-06-10T03:13:04.451Z,26.87
2018-06-10T03:15:32.868Z,27.25
2018-06-10T03:18:01.309Z,27.77
2018-06-10T03:20:29.719Z,26.40
2018-06-10T03:22:58.131Z,27.67
2018-06-10T03:25:26.520Z,27.07
2018-06-10T03:27:54.919Z,27.60
2018-06-10T03:30:23.332Z,26.80
2018-06-10T03:32:51.426Z,27.13
2018-06-10T03:35:20.038Z,28.75
2018-06-10T03:37:48.439Z,28.50
2018-06-10T03:40:16.846Z,30.48
2018-06-10T03:42:45.232Z,31.27
2018-06-10T03:45:13.328Z,26.70
2018-06-10T03:47:41.735Z,31.23
2018-06-10T03:50:10.159Z,29.05
2018-06-10T03:52:38.263Z,29.63
2018-06-10T03:55:06.642Z,30.87
2018-06-10T03:57:35.034Z,28.93
2018-06-10T04:00:03.487Z,29.52
2018-06-10T04:02:31.903Z,27.58
2018-06-10T04:05:00.306Z,29.80
2018-06-10T04:07:28.717Z,29.48
2018-06-10T04:09:57.130Z,27.17
2018-06-10T04:12:25.516Z,28.20
2018-06-10T04:14:53.955Z,24.87
2018-06-10T04:17:22.487Z,27.50
2018-06-10T04:19:50.867Z,27.25
2018-06-10T04:22:19.284Z,29.25
2018-06-10T04:24:47.681Z,25.73
2018-06-10T04:27:16.058Z,33.20
2018-06-10T04:29:44.467Z,29.00
2018-06-10T04:32:12.859Z,28.50
2018-06-10T04:34:41.263Z,27.58
2018-06-10T04:37:09.692Z,29.18
2018-06-10T04:39:38.114Z,25.90
2018-06-10T04:42:06.514Z,25.65
2018-06-10T04:44:34.914Z,25.92
2018-06-10T04:47:03.303Z,35.98
2018-06-10T04:49:31.723Z,29.52
2018-06-10T04:52:00.139Z,29.35
2018-06-10T04:54:28.240Z,23.43
2018-06-10T04:56:56.642Z,27.42
2018-06-10T04:59:25.037Z,28.23
2018-06-10T05:01:53.571Z,27.27
2018-06-10T05:04:21.970Z,27.10
2018-06-10T05:06:50.397Z,29.27
2018-06-10T05:09:18.820Z,27.62
2018-06-10T05:11:47.212Z,24.63
2018-06-10T05:14:15.634Z,27.07
2018-06-10T05:16:43.750Z,24.90
2018-06-10T05:19:12.183Z,28.83
2018-06-10T05:21:40.593Z,29.63
2018-06-10T05:24:09.002Z,28.65
2018-06-10T05:26:37.460Z,27.27
2018-06-10T05:29:05.938Z,27.17
2018-06-10T05:31:34.359Z,30.27
2018-06-10T05:34:02.766Z,27.50
2018-06-10T05:36:30.940Z,27.30
2018-06-10T05:38:59.335Z,25.97
2018-06-10T05:41:27.739Z,31.97
2018-06-10T05:43:56.123Z,30.00
2018-06-10T05:46:24.519Z,26.47
2018-06-10T05:48:52.904Z,31.73
2018-06-10T05:51:21.354Z,30.50
2018-06-10T05:53:49.708Z,28.87
2018-06-10T05:56:18.115Z,34.58
2018-06-10T05:58:46.503Z,28.80
2018-06-10T06:01:14.923Z,27.65
2018-06-10T06:03:43.322Z,29.25
2018-06-10T06:06:11.523Z,26.23
2018-06-10T06:08:39.914Z,29.45
2018-06-10T06:11:08.348Z,26.68
2018-06-10T06:13:37.655Z,30.45
2018-06-10T06:16:05.743Z,35.08
2018-06-10T06:18:34.134Z,28.73
2018-06-10T06:21:02.519Z,29.10
2018-06-10T06:23:30.962Z,32.40
2018-06-10T06:25:59.355Z,27.37
2018-06-10T06:28:27.766Z,28.42
2018-06-10T06:30:56.182Z,26.85
2018-06-10T06:33:24.330Z,27.50
2018-06-10T06:35:52.718Z,28.20
2018-06-10T06:38:21.134Z,25.90
2018-06-10T06:40:49.233Z,28.10
2018-06-10T06:43:17.654Z,29.00
2018-06-10T06:45:46.043Z,26.57
2018-06-10T06:48:14.444Z,29.63
2018-06-10T06:50:42.855Z,26.30
2018-06-10T06:53:11.250Z,26.82
2018-06-10T06:55:39.666Z,28.12
2018-06-10T06:58:07.766Z,26.70
2018-06-10T07:00:36.164Z,26.93
2018-06-10T07:03:04.597Z,28.15
2018-06-10T07:05:32.726Z,29.40
2018-06-10T07:08:01.122Z,25.20
2018-06-10T07:10:29.567Z,24.90
2018-06-10T07:12:57.988Z,26.35
2018-06-10T07:15:26.378Z,28.40
2018-06-10T07:17:54.778Z,25.97
2018-06-10T07:20:22.867Z,25.23
2018-06-10T07:22:51.269Z,25.75
2018-06-10T07:25:19.686Z,22.65
2018-06-10T07:27:48.065Z,26.37
2018-06-10T07:30:16.491Z,21.82
2018-06-10T07:32:44.895Z,25.43
2018-06-10T07:35:13.322Z,21.82
2018-06-10T07:37:41.418Z,24.50
2018-06-10T07:40:09.836Z,20.97
2018-06-10T07:42:38.213Z,18.60
2018-06-10T07:45:06.656Z,22.95
2018-06-10T07:47:35.053Z,20.68
2018-06-10T07:50:03.469Z,20.85
2018-06-10T07:52:31.884Z,20.80
2018-06-10T07:55:00.286Z,18.52
2018-06-10T07:57:28.716Z,15.43
2018-06-10T07:59:56.825Z,15.93
2018-06-10T08:02:25.194Z,20.32
2018-06-10T08:04:53.627Z,17.87
2018-06-10T08:07:22.057Z,18.20
2018-06-10T08:09:50.879Z,22.07
2018-06-10T08:12:19.301Z,17.37
2018-06-10T08:14:47.736Z,17.07
2018-06-10T08:17:16.175Z,20.97
2018-06-10T08:19:44.578Z,22.02
2018-06-10T08:22:12.955Z,19.25
2018-06-10T08:24:41.360Z,16.97
2018-06-10T08:27:09.739Z,18.37
2018-06-10T08:29:38.152Z,16.20
2018-06-10T08:32:06.314Z,15.72
2018-06-10T08:34:34.728Z,15.28
2018-06-10T08:37:03.151Z,15.10
2018-06-10T08:39:31.570Z,13.78
2018-06-10T08:41:59.679Z,15.98
2018-06-10T08:44:28.176Z,15.20
2018-06-10T08:46:56.611Z,14.57
2018-06-10T08:49:25.062Z,16.75
2018-06-10T08:51:53.442Z,13.65
2018-06-10T08:54:21.844Z,11.70
2018-06-10T08:56:50.256Z,12.68
2018-06-10T08:59:18.659Z,12.33
2018-06-10T09:01:47.074Z,13.25
2018-06-10T09:04:15.182Z,13.38
2018-06-10T09:06:43.567Z,14.50
2018-06-10T09:09:11.953Z,13.73
2018-06-10T09:11:40.345Z,13.33
2018-06-10T09:14:08.763Z,15.88
2018-06-10T09:16:37.219Z,16.32
2018-06-10T09:19:05.639Z,14.15
2018-06-10T09:21:34.094Z,16.30
2018-06-10T09:24:02.478Z,18.85
2018-06-10T09:26:30.594Z,16.62
2018-06-10T09:28:58.976Z,21.85
2018-06-10T09:31:27.427Z,19.23
2018-06-10T09:33:55.887Z,17.70
2018-06-10T09:36:24.288Z,20.43
2018-06-10T09:38:52.675Z,26.07
2018-06-10T09:41:21.109Z,23.62
2018-06-10T09:43:49.499Z,27.00
2018-06-10T09:46:17.907Z,29.05
2018-06-10T09:48:46.307Z,25.17
2018-06-10T09:51:14.703Z,24.95
2018-06-10T09:53:43.104Z,25.60
2018-06-10T09:56:11.520Z,28.20
2018-06-10T09:58:39.659Z,27.90
2018-06-10T10:01:08.052Z,25.70
2018-06-10T10:03:36.267Z,26.90
2018-06-10T10:06:04.683Z,24.85
2018-06-10T10:08:33.078Z,19.42
2018-06-10T10:11:01.572Z,21.50
2018-06-10T10:13:29.965Z,24.73
2018-06-10T10:15:58.367Z,25.37
2018-06-10T10:18:26.781Z,26.87
2018-06-10T10:20:55.180Z,25.97
2018-06-10T10:23:23.641Z,21.97
2018-06-10T10:25:52.086Z,25.57
2018-06-10T10:28:20.482Z,21.02
2018-06-10T10:30:48.866Z,22.10
2018-06-10T10:33:17.281Z,26.68
2018-06-10T10:35:45.704Z,20.05
2018-06-10T10:38:14.133Z,15.18
2018-06-10T10:40:42.554Z,18.55
2018-06-10T10:43:10.955Z,17.30
2018-06-10T10:45:39.363Z,16.80
2018-06-10T10:48:07.751Z,16.00
2018-06-10T10:50:36.142Z,15.50
2018-06-10T10:53:04.582Z,13.40
2018-06-10T10:55:33.025Z,11.15
2018-06-10T10:58:01.885Z,10.90
2018-06-10T11:00:30.269Z,11.77
2018-06-10T11:02:58.350Z,12.90
2018-06-10T11:05:26.760Z,14.50
2018-06-10T11:07:55.178Z,15.35
2018-06-10T11:10:23.591Z,13.65
2018-06-10T11:12:51.983Z,16.80
2018-06-10T11:15:20.477Z,14.53
2018-06-10T11:17:48.882Z,14.50
2018-06-10T11:20:17.299Z,16.48
2018-06-10T11:22:45.690Z,13.03
2018-06-10T11:25:14.090Z,13.07
2018-06-10T11:27:42.586Z,12.07
2018-06-10T11:30:11.077Z,12.73
2018-06-10T11:32:39.466Z,12.50
2018-06-10T11:35:07.856Z,13.50
2018-06-10T11:37:35.954Z,16.07
2018-06-10T11:40:04.069Z,18.77
2018-06-10T11:42:32.490Z,13.53
2018-06-10T11:45:00.886Z,14.60
2018-06-10T11:47:29.283Z,13.00
2018-06-10T11:49:57.682Z,13.60
2018-06-10T11:52:26.094Z,12.98
2018-06-10T11:54:54.482Z,12.30
2018-06-10T11:57:22.921Z,14.87
2018-06-10T11:59:51.330Z,15.03
2018-06-10T12:02:19.738Z,11.08
2018-06-10T12:04:48.115Z,11.40
2018-06-10T12:07:16.238Z,14.57
2018-06-10T12:09:44.634Z,12.58
2018-06-10T12:12:13.033Z,13.40
2018-06-10T12:14:41.138Z,15.00
2018-06-10T12:17:09.530Z,13.97
2018-06-10T12:19:37.918Z,14.90
2018-06-10T12:22:06.347Z,12.95
2018-06-10T12:24:34.438Z,16.02
2018-06-10T12:27:02.854Z,15.50
2018-06-10T12:29:31.257Z,14.28
2018-06-10T12:31:59.626Z,12.18
2018-06-10T12:34:28.021Z,13.70
2018-06-10T12:36:56.421Z,15.72
2018-06-10T12:39:24.835Z,16.25
2018-06-10T12:41:53.250Z,16.48
2018-06-10T12:44:21.653Z,16.90
2018-06-10T12:46:49.753Z,16.23
2018-06-10T12:49:18.180Z,15.25
2018-06-10T12:51:46.606Z,16.63
2018-06-10T12:54:14.992Z,21.70
2018-06-10T12:56:43.768Z,19.27
2018-06-10T12:59:12.139Z,21.87
2018-06-10T13:01:40.531Z,22.03
2018-06-10T13:04:08.919Z,20.00
2018-06-10T13:06:37.314Z,21.17
2018-06-10T13:09:07.836Z,19.35
2018-06-10T13:11:36.270Z,21.33
2018-06-10T13:14:04.386Z,19.75
2018-06-10T13:16:32.798Z,24.18
2018-06-10T13:19:01.194Z,20.37
2018-06-10T13:21:29.622Z,23.60
2018-06-10T13:23:57.996Z,22.98
2018-06-10T13:26:26.385Z,25.27
2018-06-10T13:28:54.886Z,27.77
2018-06-10T13:31:23.287Z,24.05
2018-06-10T13:33:51.664Z,24.90
2018-06-10T13:36:20.063Z,24.85
2018-06-10T13:38:48.153Z,25.65
2018-06-10T13:41:16.550Z,21.97
2018-06-10T13:43:44.947Z,21.60
2018-06-10T13:46:13.377Z,26.07
2018-06-10T13:48:41.774Z,23.52
2018-06-10T13:51:10.173Z,21.57
2018-06-10T13:53:38.570Z,23.32
2018-06-10T13:56:07.131Z,24.18
2018-06-10T13:58:35.536Z,23.65
2018-06-10T14:01:03.954Z,21.87
2018-06-10T14:03:32.371Z,25.65
2018-06-10T14:06:00.781Z,26.87
2018-06-10T14:08:29.197Z,23.87
2018-06-10T14:10:57.595Z,28.07
2018-06-10T14:13:25.986Z,28.27
2018-06-10T14:15:54.367Z,27.42
2018-06-10T14:18:22.739Z,23.67
2018-06-10T14:20:51.139Z,28.00
2018-06-10T14:23:19.542Z,23.95
2018-06-10T14:25:47.971Z,21.15
2018-06-10T14:28:16.361Z,23.12
2018-06-10T14:30:44.772Z,21.52
2018-06-10T14:33:13.206Z,22.70
2018-06-10T14:35:41.615Z,19.27
2018-06-10T14:38:10.013Z,21.42
2018-06-10T14:40:38.437Z,21.05
2018-06-10T14:43:06.837Z,22.37
2018-06-10T14:45:35.207Z,21.73
2018-06-10T14:48:03.676Z,27.40
2018-06-10T14:50:31.774Z,26.80
2018-06-10T14:53:00.162Z,22.58
2018-06-10T14:55:28.661Z,23.18
2018-06-10T14:57:57.343Z,21.33
2018-06-10T15:00:25.796Z,20.80
2018-06-10T15:02:54.128Z,19.52
2018-06-10T15:05:22.583Z,19.07
2018-06-10T15:07:51.139Z,20.20
2018-06-10T15:10:19.518Z,24.90
2018-06-10T15:12:47.923Z,23.02
2018-06-10T15:15:16.335Z,23.00
2018-06-10T15:17:44.738Z,20.05
2018-06-10T15:20:13.164Z,23.25
2018-06-10T15:22:41.556Z,22.93
2018-06-10T15:25:09.670Z,21.60
2018-06-10T15:27:38.063Z,20.35
2018-06-10T15:30:06.528Z,20.40
2018-06-10T15:32:34.944Z,20.95
2018-06-10T15:35:03.368Z,21.95
2018-06-10T15:37:31.478Z,20.20
2018-06-10T15:39:59.883Z,20.83
2018-06-10T15:42:28.267Z,18.90
2018-06-10T15:44:56.678Z,19.95
2018-06-10T15:47:25.093Z,20.50
2018-06-10T15:49:53.474Z,18.62
2018-06-10T15:52:21.883Z,17.70
2018-06-10T15:54:50.295Z,20.23
2018-06-10T15:57:18.414Z,19.05
2018-06-10T15:59:46.821Z,21.50
2018-06-10T16:02:15.206Z,18.00
2018-06-10T16:04:43.618Z,19.77
2018-06-10T16:07:12.176Z,21.25
2018-06-10T16:09:40.598Z,19.23
2018-06-10T16:12:09.011Z,20.75
2018-06-10T16:14:37.393Z,15.70
2018-06-10T16:17:06.007Z,17.55
2018-06-10T16:19:34.386Z,18.25
2018-06-10T16:22:02.788Z,17.67
2018-06-10T16:24:31.190Z,20.37
2018-06-10T16:26:59.630Z,17.65
2018-06-10T16:29:27.726Z,16.80
2018-06-10T16:31:56.127Z,17.70
2018-06-10T16:34:24.521Z,21.00
2018-06-10T16:36:52.937Z,17.73
2018-06-10T16:39:21.033Z,19.95
2018-06-10T16:41:49.432Z,18.92
2018-06-10T16:44:17.855Z,16.52
2018-06-10T16:46:46.272Z,17.00
2018-06-10T16:49:14.728Z,16.10
2018-06-10T16:51:43.096Z,16.30
2018-06-10T16:54:11.490Z,19.17
2018-06-10T16:56:39.875Z,21.62
2018-06-10T16:59:08.271Z,15.00
2018-06-10T17:01:36.737Z,17.17
2018-06-10T17:04:05.187Z,16.48
2018-06-10T17:06:33.554Z,16.50
2018-06-10T17:09:01.963Z,19.02
2018-06-10T17:11:30.378Z,14.55
2018-06-10T17:13:58.793Z,18.65
2018-06-10T17:16:27.198Z,18.15
2018-06-10T17:18:55.331Z,14.40
2018-06-10T17:21:23.810Z,16.32
2018-06-10T17:23:52.187Z,17.65
2018-06-10T17:26:20.611Z,21.55
2018-06-10T17:28:48.717Z,14.15
2018-06-10T17:31:17.108Z,15.63
2018-06-10T17:33:45.511Z,13.53
2018-06-10T17:36:13.911Z,17.52
2018-06-10T17:38:42.315Z,19.50
2018-06-10T17:41:10.715Z,58.33
2018-06-10T17:43:39.106Z,64.25
2018-06-10T17:46:07.505Z,29.27
2018-06-10T17:48:35.920Z,15.08
2018-06-10T17:51:04.366Z,16.75
2018-06-10T17:53:32.773Z,15.98
2018-06-10T17:56:00.870Z,17.60
2018-06-10T17:58:29.273Z,15.85
2018-06-10T18:00:57.664Z,12.93
2018-06-10T18:03:26.071Z,16.27
2018-06-10T18:05:54.178Z,20.05
2018-06-10T18:08:22.584Z,13.93
2018-06-10T18:10:50.976Z,14.65
2018-06-10T18:13:19.374Z,12.78
2018-06-10T18:15:47.765Z,14.55
2018-06-10T18:18:16.171Z,16.17
2018-06-10T18:20:44.570Z,37.87
2018-06-10T18:23:12.967Z,15.13
2018-06-10T18:25:41.407Z,13.48
2018-06-10T18:28:09.927Z,17.12
2018-06-10T18:30:38.384Z,12.40
2018-06-10T18:33:06.785Z,13.40
2018-06-10T18:35:35.257Z,14.70
2018-06-10T18:38:03.661Z,14.23
2018-06-10T18:40:32.058Z,15.72
2018-06-10T18:43:00.146Z,11.50
2018-06-10T18:45:28.571Z,12.65
2018-06-10T18:47:56.994Z,14.20
2018-06-10T18:50:25.242Z,12.45
2018-06-10T18:52:53.649Z,11.83
2018-06-10T18:55:21.732Z,13.32
2018-06-10T18:57:50.182Z,15.63
2018-06-10T19:00:18.578Z,13.63
2018-06-10T19:02:46.665Z,15.00
2018-06-10T19:05:15.077Z,15.32
2018-06-10T19:07:43.558Z,15.05
2018-06-10T19:10:11.979Z,13.70
2018-06-10T19:12:40.355Z,14.03
2018-06-10T19:15:08.791Z,14.55
2018-06-10T19:17:37.215Z,17.90
2018-06-10T19:20:05.651Z,12.65
2018-06-10T19:22:34.056Z,14.40
2018-06-10T19:25:02.470Z,14.68
2018-06-10T19:27:30.875Z,15.95
2018-06-10T19:29:59.289Z,18.42
2018-06-10T19:32:27.687Z,15.70
2018-06-10T19:34:56.103Z,14.50
2018-06-10T19:37:24.534Z,18.30
2018-06-10T19:39:52.946Z,15.85
2018-06-10T19:42:21.057Z,14.43
2018-06-10T19:44:49.469Z,14.47
2018-06-10T19:47:17.886Z,16.12
2018-06-10T19:49:45.970Z,15.03
2018-06-10T19:52:14.402Z,15.20
2018-06-10T19:54:42.787Z,16.83
2018-06-10T19:57:11.204Z,18.75
2018-06-10T19:59:39.581Z,15.03
2018-06-10T20:02:07.990Z,17.40
2018-06-10T20:04:36.387Z,18.00
2018-06-10T20:07:04.796Z,18.23
2018-06-10T20:09:32.869Z,20.53
2018-06-10T20:12:01.030Z,15.35
2018-06-10T20:14:29.406Z,18.23
2018-06-10T20:16:57.790Z,20.10
2018-06-10T20:19:26.187Z,18.17
2018-06-10T20:21:54.619Z,22.45
2018-06-10T20:24:23.088Z,20.43
2018-06-10T20:26:51.494Z,18.02
2018-06-10T20:29:19.923Z,23.27
2018-06-10T20:31:48.311Z,22.25
2018-06-10T20:34:16.711Z,21.65
2018-06-10T20:36:45.115Z,22.75
2018-06-10T20:39:13.502Z,22.27
2018-06-10T20:41:41.913Z,22.80
2018-06-10T20:44:10.310Z,21.50
2018-06-10T20:46:38.735Z,21.95
2018-06-10T20:49:07.131Z,20.37
2018-06-10T20:51:35.527Z,28.98
2018-06-10T20:54:03.942Z,24.43
2018-06-10T20:56:32.314Z,23.32
2018-06-10T20:59:00.702Z,23.15
2018-06-10T21:01:29.098Z,24.90
2018-06-10T21:03:57.486Z,24.43
2018-06-10T21:06:25.878Z,23.27
2018-06-10T21:08:54.269Z,28.85
2018-06-10T21:11:22.366Z,27.45
2018-06-10T21:13:50.755Z,27.62
2018-06-10T21:16:19.154Z,37.67
2018-06-10T21:18:47.543Z,27.87
2018-06-10T21:21:15.935Z,28.02
2018-06-10T21:23:44.328Z,24.77
2018-06-10T21:26:12.705Z,25.20
2018-06-10T21:28:41.172Z,26.42
2018-06-10T21:31:09.582Z,28.50
2018-06-10T21:33:38.030Z,25.37
2018-06-10T21:36:06.371Z,27.82
2018-06-10T21:38:34.751Z,29.57
2018-06-10T21:41:03.183Z,29.72
2018-06-10T21:43:31.303Z,24.23
2018-06-10T21:45:59.819Z,26.63
2018-06-10T21:48:28.513Z,24.47
2018-06-10T21:50:56.903Z,24.77
2018-06-10T21:53:25.024Z,26.77
2018-06-10T21:55:53.435Z,26.05
2018-06-10T21:58:22.308Z,26.80
2018-06-10T22:00:50.647Z,30.10
2018-06-10T22:03:19.042Z,29.32
2018-06-10T22:05:47.517Z,29.07
2018-06-10T22:08:15.947Z,26.40
2018-06-10T22:10:44.324Z,27.95
2018-06-10T22:13:12.720Z,27.95
2018-06-10T22:15:40.814Z,24.72
2018-06-10T22:18:09.200Z,27.47
2018-06-10T22:20:37.594Z,27.10
2018-06-10T22:23:06.567Z,25.70
2018-06-10T22:25:34.984Z,28.02
2018-06-10T22:28:03.382Z,28.00
2018-06-10T22:30:31.789Z,25.97
2018-06-10T22:33:00.192Z,24.40
2018-06-10T22:35:28.606Z,26.90
2018-06-10T22:37:56.982Z,25.15
2018-06-10T22:40:25.372Z,23.92
2018-06-10T22:42:53.775Z,28.67
2018-06-10T22:45:21.883Z,30.12
2018-06-10T22:47:50.259Z,30.53
2018-06-10T22:50:18.659Z,29.70
2018-06-10T22:52:47.356Z,27.40
2018-06-10T22:55:15.761Z,31.15
2018-06-10T22:57:44.139Z,28.90
2018-06-10T23:00:12.619Z,31.68
2018-06-10T23:02:41.033Z,31.15
2018-06-10T23:05:09.431Z,29.75
2018-06-10T23:07:37.911Z,33.00
2018-06-10T23:10:06.318Z,30.97
2018-06-10T23:12:34.720Z,25.95
2018-06-10T23:15:03.104Z,31.15
2018-06-10T23:17:31.215Z,27.93
2018-06-10T23:19:59.624Z,29.40
2018-06-10T23:22:28.008Z,27.58
2018-06-10T23:24:56.430Z,30.97
2018-06-10T23:27:24.840Z,27.52
2018-06-10T23:29:53.238Z,29.05
2018-06-10T23:32:21.714Z,30.12
2018-06-10T23:34:50.118Z,29.48
2018-06-10T23:37:18.489Z,25.72
2018-06-10T23:39:46.865Z,24.13
2018-06-10T23:42:15.263Z,24.40
2018-06-10T23:44:43.657Z,26.47
2018-06-10T23:47:11.758Z,29.20
2018-06-10T23:49:40.134Z,30.60
2018-06-10T23:52:08.543Z,29.83
2018-06-10T23:54:36.955Z,27.77
2018-06-10T23:57:05.053Z,27.07
2018-06-10T23:59:33.434Z,24.00
